createdAt,value
2018-08-18T00:00:59.913Z,63.38
2018-08-18T00:02:00.158Z,63.57
2018-08-18T00:03:00.401Z,63.28
2018-08-18T00:04:00.648Z,62.42
2018-08-18T00:05:00.892Z,62.42
2018-08-18T00:06:01.138Z,62.04
2018-08-18T00:07:01.377Z,62.32
2018-08-18T00:08:01.621Z,62.42
2018-08-18T00:09:01.866Z,62.32
2018-08-18T00:10:02.111Z,62.13
2018-08-18T00:11:02.355Z,62.61
2018-08-18T00:12:02.603Z,62.81
2018-08-18T00:13:02.845Z,62.42
2018-08-18T00:14:03.089Z,61.84
2018-08-18T00:15:03.333Z,61.84
2018-08-18T00:16:03.579Z,62.52
2018-08-18T00:17:03.821Z,61.55
2018-08-18T00:18:04.067Z,61.75
2018-08-18T00:19:04.311Z,60.60
2018-08-18T00:20:04.555Z,60.50
2018-08-18T00:21:04.800Z,60.28
2018-08-18T00:22:05.045Z,59.70
2018-08-18T00:23:05.290Z,60.11
2018-08-18T00:24:05.535Z,60.18
2018-08-18T00:25:05.779Z,59.80
2018-08-18T00:26:06.021Z,58.07
2018-08-18T00:27:06.266Z,58.17
2018-08-18T00:28:06.509Z,56.24
2018-08-18T00:29:06.754Z,55.19
2018-08-18T00:30:06.998Z,54.71
2018-08-18T00:31:07.242Z,54.52
2018-08-18T00:32:07.487Z,54.33
2018-08-18T00:33:07.731Z,54.71
2018-08-18T00:34:08.010Z,54.33
2018-08-18T00:35:08.218Z,54.42
2018-08-18T00:36:08.461Z,54.42
2018-08-18T00:37:08.721Z,54.71
2018-08-18T00:38:08.951Z,55.00
2018-08-18T00:39:09.195Z,54.80
2018-08-18T00:40:09.435Z,54.90
2018-08-18T00:41:09.680Z,54.71
2018-08-18T00:42:09.924Z,54.90
2018-08-18T00:43:10.167Z,55.00
2018-08-18T00:44:10.412Z,55.67
2018-08-18T00:45:10.653Z,55.47
2018-08-18T00:46:10.898Z,55.67
2018-08-18T00:47:11.141Z,55.67
2018-08-18T00:48:11.387Z,55.29
2018-08-18T00:49:11.629Z,56.63
2018-08-18T00:50:11.872Z,56.73
2018-08-18T00:51:12.115Z,55.77
2018-08-18T00:52:12.360Z,55.77
2018-08-18T00:53:12.605Z,54.80
2018-08-18T00:54:12.848Z,55.38
2018-08-18T00:55:13.091Z,55.57
2018-08-18T00:56:13.338Z,54.80
2018-08-18T00:57:13.580Z,54.71
2018-08-18T00:58:13.823Z,54.71
2018-08-18T00:59:14.067Z,54.04
2018-08-18T01:00:14.310Z,53.66
2018-08-18T01:01:14.553Z,53.63
2018-08-18T01:02:14.797Z,53.46
2018-08-18T01:03:15.039Z,51.35
2018-08-18T01:04:15.282Z,51.04
2018-08-18T01:05:15.526Z,51.14
2018-08-18T01:06:15.770Z,51.14
2018-08-18T01:07:16.014Z,50.27
2018-08-18T01:08:16.257Z,50.37
2018-08-18T01:09:16.501Z,50.37
2018-08-18T01:10:16.745Z,49.31
2018-08-18T01:11:17.030Z,48.54
2018-08-18T01:12:17.323Z,48.74
2018-08-18T01:13:17.518Z,49.60
2018-08-18T01:14:17.832Z,49.31
2018-08-18T01:15:17.961Z,47.30
2018-08-18T01:16:18.204Z,46.62
2018-08-18T01:17:18.449Z,45.28
2018-08-18T01:18:18.692Z,43.65
2018-08-18T01:19:18.936Z,43.74
2018-08-18T01:20:19.179Z,43.36
2018-08-18T01:21:19.442Z,42.79
2018-08-18T01:22:19.666Z,41.63
2018-08-18T01:23:19.911Z,40.47
2018-08-18T01:24:20.151Z,39.89
2018-08-18T01:25:20.397Z,39.03
2018-08-18T01:26:20.641Z,38.83
2018-08-18T01:27:20.883Z,38.07
2018-08-18T01:28:21.125Z,37.78
2018-08-18T01:29:21.370Z,38.16
2018-08-18T01:30:21.614Z,37.87
2018-08-18T01:31:21.857Z,37.68
2018-08-18T01:32:22.101Z,36.44
2018-08-18T01:33:22.345Z,36.82
2018-08-18T01:34:22.588Z,36.82
2018-08-18T01:35:22.831Z,35.28
2018-08-18T01:36:23.075Z,33.84
2018-08-18T01:37:23.318Z,34.23
2018-08-18T01:38:23.560Z,34.14
2018-08-18T01:39:23.807Z,34.90
2018-08-18T01:40:24.047Z,35.67
2018-08-18T01:41:24.290Z,36.53
2018-08-18T01:42:24.533Z,36.44
2018-08-18T01:43:24.774Z,36.34
2018-08-18T01:44:25.017Z,36.44
2018-08-18T01:45:25.262Z,37.20
2018-08-18T01:46:25.504Z,36.82
2018-08-18T01:47:25.748Z,36.63
2018-08-18T01:48:25.992Z,36.91
2018-08-18T01:49:26.233Z,37.01
2018-08-18T01:50:26.477Z,36.72
2018-08-18T01:51:26.720Z,36.91
2018-08-18T01:52:26.964Z,37.20
2018-08-18T01:53:27.206Z,36.44
2018-08-18T01:54:27.451Z,36.82
2018-08-18T01:55:27.690Z,37.59
2018-08-18T01:56:27.931Z,37.97
2018-08-18T01:57:28.172Z,37.97
2018-08-18T01:58:28.415Z,37.68
2018-08-18T01:59:28.658Z,37.59
2018-08-18T02:00:28.901Z,36.53
2018-08-18T02:01:29.145Z,35.48
2018-08-18T02:02:29.388Z,35.96
2018-08-18T02:03:29.634Z,36.53
2018-08-18T02:04:29.877Z,35.38
2018-08-18T02:05:30.128Z,35.00
2018-08-18T02:06:30.365Z,35.10
2018-08-18T02:07:30.607Z,33.27
2018-08-18T02:08:30.852Z,32.51
2018-08-18T02:09:31.095Z,32.03
2018-08-18T02:10:31.338Z,31.54
2018-08-18T02:11:31.580Z,32.12
2018-08-18T02:12:31.824Z,32.60
2018-08-18T02:13:32.068Z,33.08
2018-08-18T02:14:32.310Z,34.23
2018-08-18T02:15:32.590Z,33.75
2018-08-18T02:16:32.795Z,34.61
2018-08-18T02:17:33.039Z,34.61
2018-08-18T02:18:33.279Z,34.90
2018-08-18T02:19:33.522Z,35.19
2018-08-18T02:20:33.766Z,36.84
2018-08-18T02:21:34.010Z,37.41
2018-08-18T02:22:34.251Z,38.54
2018-08-18T02:23:34.497Z,38.95
2018-08-18T02:24:34.746Z,40.10
2018-08-18T02:25:34.984Z,40.48
2018-08-18T02:26:35.228Z,41.35
2018-08-18T02:27:35.474Z,41.63
2018-08-18T02:28:35.717Z,42.21
2018-08-18T02:29:35.960Z,42.88
2018-08-18T02:30:36.204Z,44.03
2018-08-18T02:31:36.448Z,45.09
2018-08-18T02:32:36.691Z,45.09
2018-08-18T02:33:36.936Z,45.28
2018-08-18T02:34:37.179Z,44.61
2018-08-18T02:35:37.427Z,45.28
2018-08-18T02:36:37.666Z,45.47
2018-08-18T02:37:37.909Z,45.37
2018-08-18T02:38:38.153Z,44.13
2018-08-18T02:39:38.396Z,44.32
2018-08-18T02:40:38.640Z,43.84
2018-08-18T02:41:38.884Z,43.17
2018-08-18T02:42:39.128Z,42.79
2018-08-18T02:43:39.372Z,42.40
2018-08-18T02:44:39.616Z,42.79
2018-08-18T02:45:39.861Z,42.50
2018-08-18T02:46:40.106Z,42.79
2018-08-18T02:47:40.347Z,43.46
2018-08-18T02:48:40.590Z,42.60
2018-08-18T02:49:40.835Z,41.83
2018-08-18T02:50:41.078Z,40.77
2018-08-18T02:51:41.320Z,39.72
2018-08-18T02:52:41.567Z,38.76
2018-08-18T02:53:41.807Z,37.68
2018-08-18T02:54:42.054Z,37.20
2018-08-18T02:55:42.297Z,36.72
2018-08-18T02:56:42.545Z,37.20
2018-08-18T02:57:42.786Z,36.82
2018-08-18T02:58:43.028Z,36.05
2018-08-18T02:59:43.269Z,35.38
2018-08-18T03:00:43.512Z,35.00
2018-08-18T03:01:43.757Z,35.48
2018-08-18T03:02:44.004Z,35.57
2018-08-18T03:03:44.243Z,35.48
2018-08-18T03:04:44.487Z,36.34
2018-08-18T03:05:44.728Z,37.01
2018-08-18T03:06:44.978Z,36.53
2018-08-18T03:07:45.254Z,36.34
2018-08-18T03:08:45.459Z,36.91
2018-08-18T03:09:45.703Z,37.11
2018-08-18T03:10:45.948Z,37.68
2018-08-18T03:11:46.191Z,36.44
2018-08-18T03:12:46.434Z,36.34
2018-08-18T03:13:46.678Z,35.48
2018-08-18T03:14:46.922Z,35.48
2018-08-18T03:15:47.166Z,35.67
2018-08-18T03:16:47.410Z,35.19
2018-08-18T03:17:47.654Z,36.72
2018-08-18T03:18:47.897Z,36.53
2018-08-18T03:19:48.142Z,37.68
2018-08-18T03:20:48.385Z,37.11
2018-08-18T03:21:48.628Z,36.91
2018-08-18T03:22:48.871Z,35.86
2018-08-18T03:23:49.116Z,35.67
2018-08-18T03:24:49.358Z,34.81
2018-08-18T03:25:49.601Z,32.87
2018-08-18T03:26:49.846Z,32.49
2018-08-18T03:27:50.090Z,30.47
2018-08-18T03:28:50.334Z,29.23
2018-08-18T03:29:50.579Z,27.70
2018-08-18T03:30:50.823Z,26.26
2018-08-18T03:31:51.067Z,24.24
2018-08-18T03:32:51.310Z,22.52
2018-08-18T03:33:51.554Z,21.47
2018-08-18T03:34:51.797Z,19.45
2018-08-18T03:35:52.042Z,17.82
2018-08-18T03:36:52.284Z,17.43
2018-08-18T03:37:52.528Z,16.96
2018-08-18T03:38:52.771Z,16.19
2018-08-18T03:39:53.014Z,15.33
2018-08-18T03:40:53.260Z,14.76
2018-08-18T03:41:53.503Z,14.56
2018-08-18T03:42:53.748Z,14.75
2018-08-18T03:43:53.990Z,14.94
2018-08-18T03:44:54.235Z,15.33
2018-08-18T03:45:54.478Z,14.56
2018-08-18T03:46:54.725Z,12.64
2018-08-18T03:47:54.966Z,12.45
2018-08-18T03:48:55.208Z,11.49
2018-08-18T03:49:55.453Z,10.44
2018-08-18T03:50:55.696Z,10.15
2018-08-18T03:51:55.939Z,10.44
2018-08-18T03:52:56.182Z,11.11
2018-08-18T03:53:56.429Z,11.59
2018-08-18T03:54:56.670Z,11.59
2018-08-18T03:55:56.913Z,11.30
2018-08-18T03:56:57.158Z,12.17
2018-08-18T03:57:57.402Z,13.32
2018-08-18T03:58:57.646Z,13.99
2018-08-18T03:59:57.889Z,14.76
2018-08-18T04:00:58.133Z,15.91
2018-08-18T04:01:58.467Z,17.44
2018-08-18T04:02:58.618Z,17.63
2018-08-18T04:03:58.862Z,19.55
2018-08-18T04:04:59.108Z,22.04
2018-08-18T04:05:59.351Z,23.48
2018-08-18T04:06:59.594Z,23.28
2018-08-18T04:07:59.837Z,23.67
2018-08-18T04:09:00.083Z,24.24
2018-08-18T04:10:00.323Z,23.86
2018-08-18T04:11:00.567Z,23.86
2018-08-18T04:12:00.812Z,22.52
2018-08-18T04:13:01.054Z,22.81
2018-08-18T04:14:01.302Z,22.61
2018-08-18T04:15:01.542Z,22.91
2018-08-18T04:16:01.787Z,25.30
2018-08-18T04:17:02.029Z,25.79
2018-08-18T04:18:02.275Z,24.82
2018-08-18T04:19:02.606Z,25.87
2018-08-18T04:20:02.761Z,26.08
2018-08-18T04:21:03.006Z,27.04
2018-08-18T04:22:03.249Z,27.81
2018-08-18T04:23:03.493Z,28.96
2018-08-18T04:24:03.737Z,29.44
2018-08-18T04:25:03.985Z,29.91
2018-08-18T04:26:04.226Z,30.40
2018-08-18T04:27:04.470Z,29.91
2018-08-18T04:28:04.713Z,30.78
2018-08-18T04:29:04.957Z,31.07
2018-08-18T04:30:05.203Z,30.97
2018-08-18T04:31:05.448Z,31.07
2018-08-18T04:32:05.691Z,31.54
2018-08-18T04:33:05.936Z,31.82
2018-08-18T04:34:06.180Z,32.68
2018-08-18T04:35:06.444Z,32.49
2018-08-18T04:36:06.669Z,32.78
2018-08-18T04:37:06.911Z,31.82
2018-08-18T04:38:07.154Z,30.67
2018-08-18T04:39:07.397Z,29.71
2018-08-18T04:40:07.642Z,29.61
2018-08-18T04:41:07.888Z,28.85
2018-08-18T04:42:08.134Z,27.50
2018-08-18T04:43:08.375Z,26.93
2018-08-18T04:44:08.617Z,25.01
2018-08-18T04:45:08.864Z,25.68
2018-08-18T04:46:09.108Z,25.40
2018-08-18T04:47:09.351Z,23.96
2018-08-18T04:48:09.595Z,25.01
2018-08-18T04:49:09.839Z,24.44
2018-08-18T04:50:10.084Z,24.54
2018-08-18T04:51:10.327Z,23.86
2018-08-18T04:52:10.572Z,24.15
2018-08-18T04:53:10.814Z,25.20
2018-08-18T04:54:11.061Z,25.97
2018-08-18T04:55:11.301Z,27.50
2018-08-18T04:56:11.544Z,27.41
2018-08-18T04:57:11.788Z,27.31
2018-08-18T04:58:12.034Z,27.50
2018-08-18T04:59:12.295Z,27.31
2018-08-18T05:00:12.521Z,27.50
2018-08-18T05:01:12.763Z,28.37
2018-08-18T05:02:13.006Z,28.66
2018-08-18T05:03:13.251Z,27.50
2018-08-18T05:04:13.495Z,27.31
2018-08-18T05:05:13.761Z,28.37
2018-08-18T05:06:13.982Z,28.38
2018-08-18T05:07:14.226Z,28.75
2018-08-18T05:08:14.471Z,29.04
2018-08-18T05:09:14.723Z,29.63
2018-08-18T05:10:14.958Z,30.20
2018-08-18T05:11:15.205Z,30.20
2018-08-18T05:12:15.446Z,30.58
2018-08-18T05:13:15.690Z,31.74
2018-08-18T05:14:15.931Z,33.56
2018-08-18T05:15:16.176Z,33.27
2018-08-18T05:16:16.420Z,35.00
2018-08-18T05:17:16.664Z,36.63
2018-08-18T05:18:16.908Z,36.44
2018-08-18T05:19:17.299Z,36.63
2018-08-18T05:20:17.395Z,37.87
2018-08-18T05:21:17.638Z,37.49
2018-08-18T05:22:17.884Z,36.24
2018-08-18T05:23:18.123Z,36.24
2018-08-18T05:24:18.369Z,37.30
2018-08-18T05:25:18.612Z,38.07
2018-08-18T05:26:18.858Z,38.45
2018-08-18T05:27:19.100Z,39.33
2018-08-18T05:28:19.346Z,40.00
2018-08-18T05:29:19.587Z,42.30
2018-08-18T05:30:19.833Z,42.69
2018-08-18T05:31:20.075Z,43.94
2018-08-18T05:32:20.320Z,46.05
2018-08-18T05:33:20.564Z,47.68
2018-08-18T05:34:20.808Z,49.98
2018-08-18T05:35:21.050Z,49.98
2018-08-18T05:36:21.327Z,51.73
2018-08-18T05:37:21.540Z,53.75
2018-08-18T05:38:21.784Z,53.66
2018-08-18T05:39:22.028Z,53.75
2018-08-18T05:40:22.271Z,55.19
2018-08-18T05:41:22.517Z,55.10
2018-08-18T05:42:22.760Z,57.59
2018-08-18T05:43:23.005Z,57.30
2018-08-18T05:44:23.248Z,59.03
2018-08-18T05:45:23.494Z,60.11
2018-08-18T05:46:23.739Z,60.47
2018-08-18T05:47:24.010Z,60.31
2018-08-18T05:48:24.227Z,60.98
2018-08-18T05:49:24.472Z,60.40
2018-08-18T05:50:24.721Z,61.55
2018-08-18T05:51:24.960Z,61.36
2018-08-18T05:52:25.204Z,63.38
2018-08-18T05:53:25.447Z,64.34
2018-08-18T05:54:25.695Z,65.11
2018-08-18T05:55:25.938Z,67.07
2018-08-18T05:56:26.182Z,67.51
2018-08-18T05:57:26.426Z,67.93
2018-08-18T05:58:26.673Z,69.75
2018-08-18T05:59:26.915Z,69.85
2018-08-18T06:00:27.171Z,70.14
2018-08-18T06:01:27.403Z,72.54
2018-08-18T06:02:27.648Z,73.88
2018-08-18T06:03:27.893Z,75.17
2018-08-18T06:04:28.139Z,75.56
2018-08-18T06:05:28.383Z,78.63
2018-08-18T06:06:28.628Z,80.40
2018-08-18T06:07:28.873Z,81.75
2018-08-18T06:08:29.222Z,83.09
2018-08-18T06:09:29.560Z,83.48
2018-08-18T06:10:29.810Z,84.48
2018-08-18T06:11:30.047Z,85.93
2018-08-18T06:12:30.309Z,86.51
2018-08-18T06:13:30.624Z,89.10
2018-08-18T06:14:30.785Z,91.36
2018-08-18T06:15:31.130Z,95.07
2018-08-18T06:16:31.384Z,96.03
2018-08-18T06:17:31.625Z,99.40
2018-08-18T06:18:31.972Z,99.99
2018-08-18T06:19:32.174Z,99.99
2018-08-18T06:20:32.423Z,99.99
2018-08-18T06:21:32.772Z,99.99
2018-08-18T06:22:33.032Z,99.99
2018-08-18T06:23:33.273Z,99.99
2018-08-18T06:24:33.541Z,99.98
2018-08-18T06:25:33.909Z,99.84
2018-08-18T06:26:34.141Z,99.26
2018-08-18T06:27:34.384Z,99.99
2018-08-18T06:28:34.693Z,99.99
2018-08-18T06:29:34.934Z,99.99
2018-08-18T06:30:35.281Z,99.99
2018-08-18T06:31:35.682Z,99.99
2018-08-18T06:32:36.072Z,99.99
2018-08-18T06:33:36.310Z,99.99
2018-08-18T06:34:36.611Z,99.99
2018-08-18T06:35:37.002Z,99.88
2018-08-18T06:36:37.240Z,98.73
2018-08-18T06:37:37.482Z,99.99
2018-08-18T06:38:37.742Z,99.99
2018-08-18T06:39:37.974Z,99.99
2018-08-18T06:40:38.206Z,99.30
2018-08-18T06:41:38.526Z,99.99
2018-08-18T06:42:38.686Z,99.99
2018-08-18T06:43:38.926Z,99.99
2018-08-18T06:44:39.160Z,99.99
2018-08-18T06:45:39.465Z,99.99
2018-08-18T06:46:39.712Z,99.99
2018-08-18T06:47:39.948Z,99.99
2018-08-18T06:48:40.196Z,99.99
2018-08-18T06:49:41.447Z,99.99
2018-08-18T06:50:40.771Z,99.99
2018-08-18T06:51:41.026Z,99.99
2018-08-18T06:52:41.336Z,99.99
2018-08-18T06:53:41.659Z,99.99
2018-08-18T06:54:41.970Z,99.99
2018-08-18T06:55:42.679Z,99.99
2018-08-18T06:56:42.469Z,99.99
2018-08-18T06:57:42.726Z,99.99
2018-08-18T06:58:42.944Z,99.99
2018-08-18T06:59:43.191Z,99.99
2018-08-18T07:00:43.579Z,99.99
2018-08-18T07:01:43.837Z,99.99
2018-08-18T07:02:44.081Z,99.99
2018-08-18T07:03:44.422Z,99.99
2018-08-18T07:04:44.663Z,99.99
2018-08-18T07:05:44.910Z,99.99
2018-08-18T07:06:45.149Z,99.99
2018-08-18T07:07:45.393Z,99.99
2018-08-18T07:08:45.937Z,99.99
2018-08-18T07:09:45.859Z,99.99
2018-08-18T07:10:46.105Z,99.99
2018-08-18T07:11:46.342Z,99.99
2018-08-18T07:12:46.598Z,99.99
2018-08-18T07:13:46.832Z,99.99
2018-08-18T07:14:47.089Z,99.99
2018-08-18T07:15:47.332Z,99.99
2018-08-18T07:16:47.585Z,99.99
2018-08-18T07:17:47.819Z,99.99
2018-08-18T07:18:48.074Z,99.99
2018-08-18T07:19:48.325Z,99.99
2018-08-18T07:20:48.563Z,99.99
2018-08-18T07:21:48.821Z,99.99
2018-08-18T07:22:49.069Z,99.99
2018-08-18T07:23:49.308Z,99.99
2018-08-18T07:24:49.559Z,99.99
2018-08-18T07:25:49.799Z,96.60
2018-08-18T07:26:50.037Z,89.57
2018-08-18T07:27:50.289Z,82.15
2018-08-18T07:28:50.701Z,78.05
2018-08-18T07:29:50.824Z,74.40
2018-08-18T07:30:51.029Z,72.20
2018-08-18T07:31:51.260Z,69.84
2018-08-18T07:32:51.505Z,67.02
2018-08-18T07:33:51.760Z,64.42
2018-08-18T07:34:52.011Z,63.29
2018-08-18T07:35:52.258Z,63.58
2018-08-18T07:36:52.520Z,62.63
2018-08-18T07:37:52.764Z,61.57
2018-08-18T07:38:53.006Z,60.39
2018-08-18T07:39:53.265Z,58.28
2018-08-18T07:40:53.507Z,57.63
2018-08-18T07:41:53.767Z,58.15
2018-08-18T07:42:54.007Z,60.17
2018-08-18T07:43:54.263Z,60.59
2018-08-18T07:44:54.504Z,59.23
2018-08-18T07:45:54.747Z,58.58
2018-08-18T07:46:54.998Z,57.82
2018-08-18T07:47:55.263Z,56.85
2018-08-18T07:48:55.486Z,55.90
2018-08-18T07:49:55.750Z,56.00
2018-08-18T07:50:55.990Z,55.61
2018-08-18T07:51:56.231Z,54.36
2018-08-18T07:52:56.513Z,53.97
2018-08-18T07:53:56.753Z,53.97
2018-08-18T07:54:57.001Z,52.83
2018-08-18T07:55:57.250Z,52.56
2018-08-18T07:56:57.507Z,52.15
2018-08-18T07:57:57.744Z,52.44
2018-08-18T07:58:57.994Z,53.53
2018-08-18T07:59:58.243Z,57.11
2018-08-18T08:00:58.475Z,54.93
2018-08-18T08:01:58.718Z,53.78
2018-08-18T08:02:58.982Z,52.05
2018-08-18T08:03:59.227Z,51.03
2018-08-18T08:04:59.500Z,52.09
2018-08-18T08:05:59.737Z,54.77
2018-08-18T08:06:59.981Z,58.06
2018-08-18T08:08:00.227Z,58.35
2018-08-18T08:09:00.484Z,58.71
2018-08-18T08:10:00.943Z,61.38
2018-08-18T08:11:00.963Z,66.89
2018-08-18T08:12:01.215Z,71.09
2018-08-18T08:13:01.559Z,77.12
2018-08-18T08:14:01.718Z,80.71
2018-08-18T08:15:01.970Z,81.10
2018-08-18T08:16:02.222Z,79.58
2018-08-18T08:17:02.473Z,76.91
2018-08-18T08:18:02.773Z,69.77
2018-08-18T08:19:02.982Z,64.88
2018-08-18T08:20:03.230Z,61.15
2018-08-18T08:21:03.482Z,58.67
2018-08-18T08:22:03.740Z,57.43
2018-08-18T08:23:03.989Z,55.44
2018-08-18T08:24:04.244Z,54.49
2018-08-18T08:25:04.492Z,52.95
2018-08-18T08:26:04.743Z,52.08
2018-08-18T08:27:04.999Z,51.22
2018-08-18T08:28:05.252Z,48.82
2018-08-18T08:29:05.505Z,49.24
2018-08-18T08:30:05.759Z,48.85
2018-08-18T08:31:06.013Z,48.63
2018-08-18T08:32:06.267Z,48.50
2018-08-18T08:33:06.508Z,48.99
2018-08-18T08:34:06.802Z,49.58
2018-08-18T08:35:07.052Z,49.21
2018-08-18T08:36:07.304Z,48.65
2018-08-18T08:37:07.557Z,47.89
2018-08-18T08:38:07.807Z,48.24
2018-08-18T08:39:08.057Z,47.99
2018-08-18T08:40:08.316Z,47.79
2018-08-18T08:41:08.569Z,48.16
2018-08-18T08:42:08.822Z,47.87
2018-08-18T08:43:09.127Z,48.24
2018-08-18T08:44:09.324Z,49.51
2018-08-18T08:45:09.578Z,50.78
2018-08-18T08:46:09.830Z,50.34
2018-08-18T08:47:10.087Z,48.99
2018-08-18T08:48:10.340Z,49.09
2018-08-18T08:49:10.689Z,48.33
2018-08-18T08:50:10.851Z,48.41
2018-08-18T08:51:11.104Z,47.87
2018-08-18T08:52:11.359Z,48.21
2018-08-18T08:53:11.604Z,49.85
2018-08-18T08:54:11.869Z,49.38
2018-08-18T08:55:12.126Z,48.43
2018-08-18T08:56:12.378Z,48.33
2018-08-18T08:57:12.630Z,47.30
2018-08-18T08:58:12.885Z,47.94
2018-08-18T08:59:13.138Z,47.92
2018-08-18T09:00:13.393Z,50.20
2018-08-18T09:01:13.649Z,55.37
2018-08-18T09:02:13.903Z,59.59
2018-08-18T09:03:14.167Z,58.00
2018-08-18T09:04:14.413Z,56.62
2018-08-18T09:05:14.669Z,54.50
2018-08-18T09:06:14.924Z,52.15
2018-08-18T09:07:15.173Z,53.46
2018-08-18T09:08:15.430Z,54.91
2018-08-18T09:09:15.685Z,53.85
2018-08-18T09:10:15.997Z,52.44
2018-08-18T09:11:16.195Z,48.92
2018-08-18T09:12:16.448Z,47.60
2018-08-18T09:13:16.703Z,45.37
2018-08-18T09:14:16.957Z,45.25
2018-08-18T09:15:17.212Z,48.28
2018-08-18T09:16:17.461Z,47.87
2018-08-18T09:17:17.714Z,46.57
2018-08-18T09:18:17.972Z,47.47
2018-08-18T09:19:18.225Z,46.72
2018-08-18T09:20:18.480Z,45.88
2018-08-18T09:21:18.735Z,44.53
2018-08-18T09:22:18.990Z,43.98
2018-08-18T09:23:19.245Z,42.72
2018-08-18T09:24:19.500Z,42.06
2018-08-18T09:25:19.760Z,41.49
2018-08-18T09:26:20.063Z,41.29
2018-08-18T09:27:20.268Z,41.98
2018-08-18T09:28:20.524Z,42.86
2018-08-18T09:29:20.780Z,44.46
2018-08-18T09:30:21.038Z,46.20
2018-08-18T09:31:21.295Z,47.33
2018-08-18T09:32:21.551Z,50.26
2018-08-18T09:33:21.807Z,51.68
2018-08-18T09:34:22.065Z,54.85
2018-08-18T09:35:22.320Z,56.45
2018-08-18T09:36:22.629Z,57.25
2018-08-18T09:37:22.831Z,57.64
2018-08-18T09:38:23.090Z,56.11
2018-08-18T09:39:23.346Z,54.28
2018-08-18T09:40:23.600Z,53.99
2018-08-18T09:41:23.855Z,54.58
2018-08-18T09:42:24.113Z,56.45
2018-08-18T09:43:24.367Z,58.92
2018-08-18T09:44:24.623Z,59.53
2018-08-18T09:45:33.938Z,59.41
2018-08-18T09:46:34.871Z,60.77
2018-08-18T09:47:26.356Z,60.96
2018-08-18T09:48:35.829Z,60.38
2018-08-18T09:49:26.143Z,60.28
2018-08-18T09:50:26.139Z,62.38
2018-08-18T09:53:42.818Z,59.50
2018-08-18T09:54:43.014Z,58.10
2018-08-18T09:55:45.121Z,52.90
2018-08-18T09:56:44.834Z,48.80
2018-08-18T09:57:46.294Z,47.55
2018-08-18T09:58:44.028Z,48.97
2018-08-18T09:59:44.271Z,50.88
2018-08-18T10:00:44.711Z,50.85
2018-08-18T10:01:45.919Z,53.24
2018-08-18T10:02:44.974Z,55.33
2018-08-18T10:03:45.212Z,56.09
2018-08-18T10:04:45.460Z,57.84
2018-08-18T10:05:45.699Z,59.07
2018-08-18T10:06:46.005Z,59.66
2018-08-18T10:07:46.191Z,59.36
2018-08-18T10:08:46.433Z,58.78
2018-08-18T10:09:46.686Z,57.93
2018-08-18T10:10:47.003Z,57.67
2018-08-18T10:11:47.170Z,53.71
2018-08-18T10:12:47.437Z,49.31
2018-08-18T10:13:47.678Z,47.64
2018-08-18T10:14:47.942Z,46.13
2018-08-18T10:15:48.185Z,45.62
2018-08-18T10:16:48.427Z,46.23
2018-08-18T10:17:48.670Z,45.62
2018-08-18T10:18:48.946Z,46.59
2018-08-18T10:19:49.176Z,46.98
2018-08-18T10:20:49.462Z,45.66
2018-08-18T10:21:49.716Z,44.93
2018-08-18T10:22:50.067Z,47.02
2018-08-18T10:24:09.010Z,45.76
2018-08-18T10:24:50.608Z,46.20
2018-08-18T10:25:50.887Z,46.13
2018-08-18T10:26:51.101Z,45.25
2018-08-18T10:27:51.354Z,46.72
2018-08-18T10:28:51.603Z,48.88
2018-08-18T10:29:51.860Z,52.24
2018-08-18T10:30:52.110Z,53.02
2018-08-18T10:31:54.634Z,53.97
2018-08-18T10:32:52.873Z,50.75
2018-08-18T10:33:53.124Z,51.36
2018-08-18T10:34:53.378Z,52.95
2018-08-18T10:35:53.694Z,52.36
2018-08-18T10:36:53.979Z,52.85
2018-08-18T10:37:54.253Z,52.63
2018-08-18T10:38:54.515Z,52.36
2018-08-18T10:39:54.765Z,50.32
2018-08-18T10:40:55.036Z,47.01
2018-08-18T10:41:55.316Z,44.37
2018-08-18T10:42:55.556Z,44.91
2018-08-18T10:43:55.810Z,46.11
2018-08-18T10:44:56.111Z,45.59
2018-08-18T10:45:56.350Z,43.27
2018-08-18T10:47:05.277Z,42.90
2018-08-18T10:47:56.981Z,42.53
2018-08-18T10:48:57.226Z,40.92
2018-08-18T10:49:57.488Z,39.66
2018-08-18T10:50:57.741Z,39.66
2018-08-18T10:51:57.980Z,39.64
2018-08-18T10:52:58.272Z,41.84
2018-08-18T10:53:58.484Z,40.16
2018-08-18T10:54:58.738Z,40.01
2018-08-18T10:55:58.988Z,41.21
2018-08-18T10:56:59.249Z,43.51
2018-08-18T10:57:59.541Z,45.01
2018-08-18T10:58:59.803Z,45.97
2018-08-18T11:00:00.024Z,46.06
2018-08-18T11:01:00.307Z,46.62
2018-08-18T11:02:00.525Z,47.28
2018-08-18T11:03:00.783Z,48.41
2018-08-18T11:04:01.066Z,49.19
2018-08-18T11:05:01.295Z,49.34
2018-08-18T11:06:01.532Z,50.02
2018-08-18T11:07:01.789Z,49.49
2018-08-18T11:08:02.045Z,47.06
2018-08-18T11:09:02.291Z,44.02
2018-08-18T11:10:02.574Z,41.94
2018-08-18T11:11:02.801Z,40.98
2018-08-18T11:12:03.051Z,39.92
2018-08-18T11:13:03.303Z,39.32
2018-08-18T11:14:03.555Z,38.36
2018-08-18T11:15:03.815Z,38.68
2018-08-18T11:16:04.071Z,37.51
2018-08-18T11:17:04.351Z,36.57
2018-08-18T11:18:04.623Z,37.12
2018-08-18T11:19:04.877Z,37.04
2018-08-18T11:20:05.129Z,36.46
2018-08-18T11:21:05.388Z,35.41
2018-08-18T11:22:05.644Z,34.94
2018-08-18T11:23:05.905Z,35.76
2018-08-18T11:24:06.176Z,36.11
2018-08-18T11:26:39.629Z,38.54
2018-08-18T11:27:39.800Z,38.42
2018-08-18T11:28:40.165Z,39.35
2018-08-18T11:29:40.309Z,38.64
2018-08-18T11:30:40.555Z,37.10
2018-08-18T11:31:40.839Z,36.33
2018-08-18T11:32:41.158Z,35.77
2018-08-18T11:33:41.500Z,35.18
2018-08-18T11:34:41.705Z,33.85
2018-08-18T11:35:42.541Z,33.92
2018-08-18T11:36:42.385Z,36.04
2018-08-18T11:37:42.692Z,35.84
2018-08-18T11:38:42.973Z,35.82
2018-08-18T11:39:43.244Z,36.32
2018-08-18T11:40:43.574Z,36.02
2018-08-18T11:41:43.828Z,35.84
2018-08-18T11:42:44.105Z,35.84
2018-08-18T11:43:44.377Z,34.84
2018-08-18T11:44:44.600Z,35.72
2018-08-18T11:45:45.066Z,33.98
2018-08-18T11:46:45.114Z,33.00
2018-08-18T11:47:45.360Z,33.67
2018-08-18T11:48:45.680Z,33.61
2018-08-18T11:49:45.856Z,34.41
2018-08-18T11:50:46.189Z,34.12
2018-08-18T11:51:46.418Z,33.28
2018-08-18T11:52:46.674Z,32.29
2018-08-18T11:53:46.956Z,33.20
2018-08-18T11:54:47.211Z,32.49
2018-08-18T11:55:47.469Z,32.42
2018-08-18T11:56:47.727Z,33.18
2018-08-18T11:57:47.977Z,33.06
2018-08-18T11:58:48.238Z,34.08
2018-08-18T11:59:48.496Z,31.34
2018-08-18T12:00:48.753Z,30.78
2018-08-18T12:01:49.027Z,30.88
2018-08-18T12:02:49.282Z,31.17
2018-08-18T12:03:49.529Z,31.27
2018-08-18T12:04:49.789Z,31.19
2018-08-18T12:05:50.048Z,34.13
2018-08-18T12:06:50.301Z,36.90
2018-08-18T12:07:50.554Z,38.37
2018-08-18T12:08:50.816Z,40.29
2018-08-18T12:09:51.061Z,41.97
2018-08-18T12:10:51.461Z,43.75
2018-08-18T12:11:51.581Z,44.03
2018-08-18T12:12:51.869Z,40.61
2018-08-18T12:13:52.122Z,40.48
2018-08-18T12:14:52.369Z,41.60
2018-08-18T12:15:52.627Z,42.19
2018-08-18T12:16:52.882Z,42.07
2018-08-18T12:17:53.133Z,42.25
2018-08-18T12:18:53.381Z,42.89
2018-08-18T12:19:53.624Z,42.74
2018-08-18T12:20:53.891Z,41.76
2018-08-18T12:21:54.155Z,40.13
2018-08-18T12:22:54.407Z,37.21
2018-08-18T12:23:54.656Z,36.83
2018-08-18T12:24:54.909Z,35.87
2018-08-18T12:25:55.170Z,35.93
2018-08-18T12:26:55.459Z,36.15
2018-08-18T12:27:55.721Z,36.00
2018-08-18T12:28:55.976Z,34.34
2018-08-18T12:29:56.363Z,33.65
2018-08-18T12:30:56.480Z,31.73
2018-08-18T12:31:56.738Z,31.93
2018-08-18T12:32:57.003Z,32.41
2018-08-18T12:33:57.281Z,33.34
2018-08-18T12:34:57.570Z,33.94
2018-08-18T12:35:57.801Z,33.36
2018-08-18T12:36:58.216Z,32.41
2018-08-18T12:37:58.316Z,31.95
2018-08-18T12:38:58.577Z,32.24
2018-08-18T12:39:58.820Z,32.20
2018-08-18T12:40:59.080Z,32.46
2018-08-18T12:41:59.337Z,33.44
2018-08-18T12:42:59.595Z,33.08
2018-08-18T12:43:59.852Z,32.93
2018-08-18T12:45:00.110Z,32.95
2018-08-18T12:46:00.367Z,34.25
2018-08-18T12:47:00.626Z,35.85
2018-08-18T12:48:00.880Z,34.75
2018-08-18T12:49:01.140Z,33.05
2018-08-18T12:50:01.434Z,33.72
2018-08-18T12:51:01.649Z,34.26
2018-08-18T12:52:01.902Z,33.77
2018-08-18T12:53:02.160Z,33.56
2018-08-18T12:54:02.417Z,33.75
2018-08-18T12:55:02.673Z,34.33
2018-08-18T12:56:02.931Z,35.41
2018-08-18T12:57:03.189Z,35.91
2018-08-18T12:58:03.481Z,38.24
2018-08-18T12:59:03.703Z,36.53
2018-08-18T13:00:03.952Z,35.76